createdAt,value
2023-04-20T00:02:09.634Z,6.00
2023-04-20T00:04:36.637Z,6.00
2023-04-20T00:07:03.406Z,6.00
2023-04-20T00:09:30.153Z,6.00
2023-04-20T00:11:56.827Z,6.10
2023-04-20T00:14:23.559Z,6.10
2023-04-20T00:16:50.310Z,6.10
2023-04-20T00:19:17.736Z,6.10
2023-04-20T00:21:45.386Z,6.10
2023-04-20T00:24:12.205Z,6.10
2023-04-20T00:26:38.831Z,6.10
2023-04-20T00:29:05.452Z,6.10
2023-04-20T00:31:32.439Z,6.10
2023-04-20T00:33:59.116Z,6.20
2023-04-20T00:36:27.064Z,6.20
2023-04-20T00:38:53.831Z,6.20
2023-04-20T00:41:21.488Z,6.10
2023-04-20T00:43:52.387Z,6.10
2023-04-20T00:46:19.663Z,6.20
2023-04-20T00:48:46.697Z,6.20
2023-04-20T00:51:13.690Z,6.20
2023-04-20T00:53:41.193Z,6.20
2023-04-20T00:56:07.912Z,6.30
2023-04-20T00:58:34.562Z,6.30
2023-04-20T01:01:01.284Z,6.30
2023-04-20T01:03:28.242Z,6.30
2023-04-20T01:05:55.119Z,6.20
2023-04-20T01:08:25.661Z,6.10
2023-04-20T01:10:52.304Z,6.10
2023-04-20T01:13:18.973Z,6.10
2023-04-20T01:15:45.676Z,6.00
2023-04-20T01:18:12.399Z,6.00
2023-04-20T01:20:39.114Z,6.00
2023-04-20T01:23:05.739Z,5.90
2023-04-20T01:25:32.462Z,5.90
2023-04-20T01:27:59.055Z,5.90
2023-04-20T01:30:25.694Z,5.90
2023-04-20T01:32:52.345Z,5.90
2023-04-20T01:35:19.048Z,5.90
2023-04-20T01:37:45.773Z,5.90
2023-04-20T01:40:12.993Z,5.90
2023-04-20T01:42:40.062Z,5.90
2023-04-20T01:45:07.124Z,6.00
2023-04-20T01:47:34.026Z,6.00
2023-04-20T01:50:01.137Z,6.10
2023-04-20T01:52:27.853Z,6.10
2023-04-20T01:54:54.462Z,6.10
2023-04-20T01:57:25.125Z,6.10
2023-04-20T01:59:51.769Z,6.10
2023-04-20T02:02:18.814Z,6.00
2023-04-20T02:04:45.492Z,6.00
2023-04-20T02:07:12.186Z,6.00
2023-04-20T02:09:38.824Z,6.00
2023-04-20T02:12:05.627Z,6.00
2023-04-20T02:14:32.365Z,6.00
2023-04-20T02:16:59.463Z,6.00
2023-04-20T02:19:26.104Z,6.10
2023-04-20T02:21:52.776Z,6.10
2023-04-20T02:24:19.483Z,6.10
2023-04-20T02:26:46.126Z,6.00
2023-04-20T02:29:12.760Z,6.00
2023-04-20T02:31:39.498Z,6.00
2023-04-20T02:34:09.292Z,6.00
2023-04-20T02:36:35.977Z,6.00
2023-04-20T02:39:03.504Z,6.00
2023-04-20T02:41:30.214Z,6.00
2023-04-20T02:43:56.825Z,5.90
2023-04-20T02:46:38.013Z,5.90
2023-04-20T02:49:04.669Z,5.90
2023-04-20T02:51:32.310Z,5.90
2023-04-20T02:53:59.255Z,5.90
2023-04-20T02:56:26.445Z,5.90
2023-04-20T02:58:53.249Z,5.90
2023-04-20T03:01:20.186Z,5.90
2023-04-20T03:03:47.167Z,5.90
2023-04-20T03:06:13.992Z,5.90
2023-04-20T03:08:40.763Z,5.90
2023-04-20T03:11:07.404Z,5.90
2023-04-20T03:13:34.113Z,5.80
2023-04-20T03:16:00.806Z,5.80
2023-04-20T03:18:27.516Z,5.80
2023-04-20T03:20:54.536Z,5.70
2023-04-20T03:23:21.204Z,5.80
2023-04-20T03:25:47.856Z,5.70
2023-04-20T03:28:15.261Z,5.70
2023-04-20T03:30:42.038Z,5.70
2023-04-20T03:33:08.816Z,5.70
2023-04-20T03:35:35.687Z,5.70
2023-04-20T03:38:02.399Z,5.70
2023-04-20T03:40:29.000Z,5.70
2023-04-20T03:42:56.084Z,5.60
2023-04-20T03:45:22.754Z,5.70
2023-04-20T03:47:50.970Z,5.70
2023-04-20T03:50:17.719Z,5.70
2023-04-20T03:52:44.445Z,5.70
2023-04-20T03:55:11.181Z,5.70
2023-04-20T03:57:38.095Z,5.70
2023-04-20T04:00:05.057Z,5.70
2023-04-20T04:02:31.799Z,5.70
2023-04-20T04:04:58.563Z,5.70
2023-04-20T04:07:25.413Z,5.70
2023-04-20T04:09:52.137Z,5.70
2023-04-20T04:12:18.814Z,5.70
2023-04-20T04:14:45.562Z,5.70
2023-04-20T04:17:13.891Z,5.70
2023-04-20T04:19:40.657Z,5.70
2023-04-20T04:22:07.355Z,5.70
2023-04-20T04:24:33.962Z,5.70
2023-04-20T04:27:02.211Z,5.70
2023-04-20T04:29:28.873Z,5.70
2023-04-20T04:31:55.541Z,5.70
2023-04-20T04:34:24.052Z,5.70
2023-04-20T04:36:50.721Z,5.70
2023-04-20T04:39:17.633Z,5.80
2023-04-20T04:41:44.503Z,5.80
2023-04-20T04:44:15.469Z,5.80
2023-04-20T04:46:43.314Z,5.80
2023-04-20T04:49:10.601Z,5.80
2023-04-20T04:51:37.415Z,5.80
2023-04-20T04:54:04.206Z,5.80
2023-04-20T04:56:31.595Z,5.90
2023-04-20T04:59:01.089Z,5.90
2023-04-20T05:01:27.758Z,5.90
2023-04-20T05:03:54.709Z,5.90
2023-04-20T05:06:21.689Z,5.80
2023-04-20T05:08:48.275Z,5.80
2023-04-20T05:11:14.976Z,5.80
2023-04-20T05:13:41.652Z,5.80
2023-04-20T05:16:08.338Z,5.80
2023-04-20T05:18:35.041Z,5.80
2023-04-20T05:21:01.849Z,5.70
2023-04-20T05:23:28.563Z,5.70
2023-04-20T05:25:55.351Z,5.70
2023-04-20T05:28:22.042Z,5.70
2023-04-20T05:30:48.670Z,5.60
2023-04-20T05:33:15.295Z,5.70
2023-04-20T05:35:41.945Z,5.70
2023-04-20T05:38:08.595Z,5.60
2023-04-20T05:40:35.964Z,5.60
2023-04-20T05:43:02.802Z,5.60
2023-04-20T05:45:29.683Z,5.60
2023-04-20T05:47:57.430Z,5.60
2023-04-20T05:50:24.958Z,5.60
2023-04-20T05:52:52.167Z,5.60
2023-04-20T05:55:21.425Z,5.60
2023-04-20T05:57:49.003Z,5.60
2023-04-20T06:00:17.079Z,5.60
2023-04-20T06:02:43.938Z,5.60
2023-04-20T06:05:11.394Z,5.60
2023-04-20T06:07:38.512Z,5.50
2023-04-20T06:10:05.717Z,5.50
2023-04-20T06:12:32.580Z,5.50
2023-04-20T06:14:59.373Z,5.50
2023-04-20T06:17:26.040Z,5.50
2023-04-20T06:19:53.773Z,5.70
2023-04-20T06:22:20.431Z,5.70
2023-04-20T06:24:47.214Z,5.70
2023-04-20T06:27:13.880Z,5.80
2023-04-20T06:29:40.625Z,5.90
2023-04-20T06:32:07.340Z,6.00
2023-04-20T06:34:33.994Z,6.20
2023-04-20T06:37:00.672Z,6.20
2023-04-20T06:39:27.615Z,6.40
2023-04-20T06:41:54.236Z,6.60
2023-04-20T06:44:21.027Z,6.50
2023-04-20T06:46:47.716Z,6.80
2023-04-20T06:49:14.416Z,6.90
2023-04-20T06:51:41.078Z,7.10
2023-04-20T06:54:07.737Z,7.30
2023-04-20T06:56:35.781Z,7.30
2023-04-20T06:59:02.719Z,7.40
2023-04-20T07:01:29.562Z,7.60
2023-04-20T07:03:56.460Z,7.70
2023-04-20T07:06:25.224Z,7.80
2023-04-20T07:08:51.834Z,8.00
2023-04-20T07:11:18.594Z,8.10
2023-04-20T07:13:45.535Z,8.10
2023-04-20T07:16:12.227Z,8.10
2023-04-20T07:18:38.911Z,8.20
2023-04-20T07:21:05.541Z,8.20
2023-04-20T07:23:32.230Z,8.30
2023-04-20T07:25:59.042Z,8.60
2023-04-20T07:28:26.087Z,8.90
2023-04-20T07:30:52.751Z,9.20
2023-04-20T07:33:20.626Z,9.50
2023-04-20T07:35:47.360Z,9.80
2023-04-20T07:38:15.217Z,10.00
2023-04-20T07:40:41.869Z,10.10
2023-04-20T07:43:08.566Z,10.10
2023-04-20T07:45:35.288Z,10.10
2023-04-20T07:48:02.551Z,10.20
2023-04-20T07:50:29.252Z,10.20
2023-04-20T07:52:56.066Z,10.20
2023-04-20T07:55:22.840Z,10.40
2023-04-20T08:00:34.706Z,10.30
2023-04-20T08:03:01.555Z,10.10
2023-04-20T08:05:28.457Z,10.10
2023-04-20T08:07:55.253Z,10.40
2023-04-20T08:10:22.051Z,10.50
2023-04-20T08:12:51.142Z,10.60
2023-04-20T08:15:19.384Z,10.60
2023-04-20T08:17:46.293Z,10.60
2023-04-20T08:20:12.926Z,10.50
2023-04-20T08:22:39.623Z,10.40
2023-04-20T08:25:06.399Z,10.60
2023-04-20T08:27:33.155Z,10.70
2023-04-20T08:30:04.193Z,10.90
2023-04-20T08:32:31.279Z,11.00
2023-04-20T08:34:57.929Z,11.10
2023-04-20T08:37:25.725Z,11.30
2023-04-20T08:39:52.580Z,11.40
2023-04-20T08:42:19.276Z,11.70
2023-04-20T08:44:45.899Z,11.80
2023-04-20T08:47:12.812Z,11.90
2023-04-20T08:49:39.723Z,11.90
2023-04-20T08:52:10.608Z,12.00
2023-04-20T08:54:42.800Z,11.90
2023-04-20T08:57:16.317Z,11.90
2023-04-20T08:59:43.016Z,12.00
2023-04-20T09:02:11.426Z,12.30
2023-04-20T09:04:38.737Z,12.60
2023-04-20T09:07:05.861Z,12.70
2023-04-20T09:09:33.052Z,12.70
2023-04-20T09:12:07.448Z,12.60
2023-04-20T09:14:44.029Z,12.50
2023-04-20T09:17:14.199Z,12.50
2023-04-20T09:19:41.734Z,12.70
2023-04-20T09:22:08.434Z,13.00
2023-04-20T09:24:39.567Z,13.30
2023-04-20T09:30:42.110Z,13.20
2023-04-20T09:33:10.855Z,13.30
2023-04-20T09:35:42.130Z,13.40
2023-04-20T09:38:09.415Z,13.40
2023-04-20T09:40:36.380Z,13.50
2023-04-20T09:43:10.561Z,13.80
2023-04-20T09:45:38.593Z,14.10
2023-04-20T09:48:08.645Z,14.20
2023-04-20T09:50:48.351Z,14.20
2023-04-20T09:53:16.919Z,14.00
2023-04-20T09:55:48.532Z,13.70
2023-04-20T09:58:16.785Z,13.60
2023-04-20T10:00:43.867Z,13.60
2023-04-20T10:03:11.664Z,13.60
2023-04-20T10:05:39.772Z,13.40
2023-04-20T10:08:07.266Z,13.50
2023-04-20T10:10:44.222Z,13.70
2023-04-20T10:13:10.897Z,13.70
2023-04-20T10:15:38.640Z,13.60
2023-04-20T10:18:18.927Z,13.40
2023-04-20T10:20:46.319Z,13.40
2023-04-20T10:23:15.973Z,13.50
2023-04-20T10:25:45.068Z,13.60
2023-04-20T10:28:12.009Z,13.80
2023-04-20T10:30:50.010Z,13.60
2023-04-20T10:33:18.037Z,13.50
2023-04-20T10:35:47.673Z,13.60
2023-04-20T10:38:14.349Z,13.40
2023-04-20T10:40:41.015Z,13.30
2023-04-20T10:43:21.442Z,13.30
2023-04-20T10:45:48.851Z,13.30
2023-04-20T10:48:17.854Z,13.60
2023-04-20T10:50:44.845Z,13.60
2023-04-20T10:53:19.108Z,13.90
2023-04-20T10:55:46.000Z,13.90
2023-04-20T10:58:22.664Z,13.70
2023-04-20T11:00:59.297Z,13.70
2023-04-20T11:03:27.247Z,13.80
2023-04-20T11:05:53.988Z,13.90
2023-04-20T11:08:20.692Z,13.90
2023-04-20T11:10:47.749Z,13.80
2023-04-20T11:13:22.427Z,14.00
2023-04-20T11:15:49.249Z,14.20
2023-04-20T11:18:16.055Z,14.40
2023-04-20T11:20:55.394Z,14.60
2023-04-20T11:23:22.870Z,14.80
2023-04-20T11:25:51.071Z,14.80
2023-04-20T11:28:17.762Z,14.90
2023-04-20T11:30:44.665Z,15.20
2023-04-20T11:33:11.577Z,15.20
2023-04-20T11:35:39.289Z,15.10
2023-04-20T11:38:05.986Z,14.90
2023-04-20T11:40:32.744Z,14.90
2023-04-20T11:43:00.200Z,14.40
2023-04-20T11:45:27.988Z,14.30
2023-04-20T11:47:55.159Z,14.20
2023-04-20T11:50:22.510Z,14.20
2023-04-20T11:52:49.125Z,14.30
2023-04-20T11:55:16.503Z,14.20
2023-04-20T11:57:43.412Z,14.40
2023-04-20T12:00:10.293Z,14.50
2023-04-20T12:02:37.113Z,14.50
2023-04-20T12:05:04.172Z,14.40
2023-04-20T12:07:31.201Z,14.40
2023-04-20T12:09:57.859Z,14.40
2023-04-20T12:12:26.421Z,14.40
2023-04-20T12:14:53.095Z,14.30
2023-04-20T12:17:19.993Z,14.40
2023-04-20T12:19:47.225Z,14.40
2023-04-20T12:22:13.840Z,14.40
2023-04-20T12:24:40.506Z,14.30
2023-04-20T12:27:07.251Z,14.30
2023-04-20T12:29:34.062Z,14.30
2023-04-20T12:32:00.738Z,14.30
2023-04-20T12:34:27.381Z,14.40
2023-04-20T12:36:54.006Z,14.30
2023-04-20T12:39:20.843Z,14.40
2023-04-20T12:41:47.455Z,14.40
2023-04-20T12:44:14.139Z,14.20
2023-04-20T12:46:40.833Z,14.10
2023-04-20T12:49:07.537Z,14.30
2023-04-20T12:51:34.175Z,14.30
2023-04-20T12:54:01.336Z,14.30
2023-04-20T12:56:28.046Z,14.30
2023-04-20T12:58:54.680Z,14.40
2023-04-20T13:01:21.449Z,14.50
2023-04-20T13:03:50.540Z,14.50
2023-04-20T13:06:17.543Z,14.60
2023-04-20T13:08:44.916Z,14.90
2023-04-20T13:11:16.096Z,15.00
2023-04-20T13:13:42.784Z,15.00
2023-04-20T13:16:09.641Z,14.90
2023-04-20T13:18:36.537Z,14.80
2023-04-20T13:21:03.617Z,14.80
2023-04-20T13:23:30.871Z,14.70
2023-04-20T13:25:59.656Z,14.80
2023-04-20T13:28:26.498Z,14.90
2023-04-20T13:30:55.533Z,14.80
2023-04-20T13:33:22.415Z,14.80
2023-04-20T13:35:49.133Z,14.70
2023-04-20T13:38:16.102Z,14.60
2023-04-20T13:40:44.391Z,14.70
2023-04-20T13:43:11.250Z,14.40
2023-04-20T13:45:38.072Z,14.60
2023-04-20T13:48:04.911Z,14.60
2023-04-20T13:50:31.776Z,14.50
2023-04-20T13:52:58.668Z,14.60
2023-04-20T13:55:26.882Z,14.70
2023-04-20T13:57:53.937Z,14.70
2023-04-20T14:00:20.780Z,14.70
2023-04-20T14:02:47.747Z,14.50
2023-04-20T14:05:14.539Z,14.20
2023-04-20T14:07:41.363Z,14.30
2023-04-20T14:10:08.493Z,14.40
2023-04-20T14:12:35.300Z,14.50
2023-04-20T14:15:02.044Z,14.40
2023-04-20T14:17:28.719Z,14.30
2023-04-20T14:19:56.064Z,14.30
2023-04-20T14:22:22.698Z,14.30
2023-04-20T14:24:49.345Z,14.40
2023-04-20T14:27:16.021Z,14.30
2023-04-20T14:29:42.675Z,14.20
2023-04-20T14:32:09.296Z,14.00
2023-04-20T14:34:36.047Z,14.00
2023-04-20T14:37:02.730Z,14.00
2023-04-20T14:39:29.496Z,14.10
2023-04-20T14:41:56.256Z,14.00
2023-04-20T14:44:22.924Z,14.00
2023-04-20T14:46:49.716Z,14.00
2023-04-20T14:49:16.473Z,14.10
2023-04-20T14:51:43.257Z,14.00
2023-04-20T14:54:10.044Z,14.00
2023-04-20T14:56:36.742Z,13.90
2023-04-20T14:59:03.562Z,13.90
2023-04-20T15:01:30.413Z,13.80
2023-04-20T15:03:57.292Z,13.70
2023-04-20T15:06:24.245Z,13.70
2023-04-20T15:08:52.794Z,13.70
2023-04-20T15:11:19.447Z,13.70
2023-04-20T15:13:47.085Z,13.80
2023-04-20T15:16:13.833Z,13.80
2023-04-20T15:18:40.576Z,13.80
2023-04-20T15:21:08.452Z,13.80
2023-04-20T15:23:35.401Z,13.70
2023-04-20T15:26:02.104Z,13.70
2023-04-20T15:28:28.810Z,13.80
2023-04-20T15:30:55.538Z,13.80
2023-04-20T15:33:22.297Z,13.70
2023-04-20T15:35:50.348Z,13.70
2023-04-20T15:38:17.007Z,13.70
2023-04-20T15:40:43.742Z,13.70
2023-04-20T15:43:10.336Z,13.70
2023-04-20T15:45:37.032Z,13.80
2023-04-20T15:48:03.822Z,13.80
2023-04-20T15:50:30.518Z,13.80
2023-04-20T15:52:57.261Z,13.80
2023-04-20T15:55:23.910Z,13.80
2023-04-20T15:57:56.860Z,13.80
2023-04-20T16:00:24.124Z,13.80
2023-04-20T16:02:51.539Z,13.80
2023-04-20T16:05:18.256Z,13.70
2023-04-20T16:07:45.207Z,13.70
2023-04-20T16:10:11.872Z,13.70
2023-04-20T16:12:38.603Z,13.60
2023-04-20T16:15:05.575Z,13.60
2023-04-20T16:17:32.306Z,13.50
2023-04-20T16:19:58.984Z,13.50
2023-04-20T16:22:25.994Z,13.40
2023-04-20T16:24:52.676Z,13.40
2023-04-20T16:27:22.237Z,13.30
2023-04-20T16:29:48.825Z,13.30
2023-04-20T16:32:15.642Z,13.20
2023-04-20T16:34:42.346Z,13.10
2023-04-20T16:37:09.180Z,13.10
2023-04-20T16:39:37.417Z,13.00
2023-04-20T16:42:04.120Z,13.00
2023-04-20T16:44:30.875Z,12.90
2023-04-20T16:46:57.617Z,12.80
2023-04-20T16:49:24.310Z,12.80
2023-04-20T16:51:51.004Z,12.70
2023-04-20T16:54:18.017Z,12.70
2023-04-20T16:56:44.861Z,12.60
2023-04-20T16:59:11.587Z,12.50
2023-04-20T17:01:38.388Z,12.50
2023-04-20T17:04:05.222Z,12.50
2023-04-20T17:06:32.054Z,12.40
2023-04-20T17:09:05.422Z,12.30
2023-04-20T17:11:36.052Z,12.30
2023-04-20T17:14:05.008Z,12.20
2023-04-20T17:16:32.041Z,12.10
2023-04-20T17:18:58.838Z,12.10
2023-04-20T17:21:27.685Z,12.00
2023-04-20T17:23:54.941Z,12.00
2023-04-20T17:26:21.689Z,12.00
2023-04-20T17:28:48.435Z,11.90
2023-04-20T17:31:15.160Z,11.90
2023-04-20T17:33:43.369Z,11.80
2023-04-20T17:36:10.040Z,11.80
2023-04-20T17:38:38.377Z,11.80
2023-04-20T17:41:05.190Z,11.80
2023-04-20T17:43:32.073Z,11.70
2023-04-20T17:45:58.852Z,11.70
2023-04-20T17:48:25.672Z,11.60
2023-04-20T17:50:52.365Z,11.60
2023-04-20T17:53:19.034Z,11.60
2023-04-20T17:55:45.828Z,11.60
2023-04-20T17:58:13.044Z,11.50
2023-04-20T18:00:39.953Z,11.50
2023-04-20T18:03:06.752Z,11.40
2023-04-20T18:05:34.097Z,11.40
2023-04-20T18:08:00.783Z,11.30
2023-04-20T18:10:27.577Z,11.30
2023-04-20T18:12:54.308Z,11.20
2023-04-20T18:15:21.080Z,11.10
2023-04-20T18:17:48.874Z,11.10
2023-04-20T18:20:15.795Z,11.00
2023-04-20T18:22:42.483Z,11.00
2023-04-20T18:25:09.390Z,11.00
2023-04-20T18:27:36.104Z,11.00
2023-04-20T18:30:02.817Z,10.90
2023-04-20T18:32:30.981Z,10.90
2023-04-20T18:34:59.228Z,10.80
2023-04-20T18:37:26.056Z,10.80
2023-04-20T18:39:52.828Z,10.80
2023-04-20T18:42:19.517Z,10.70
2023-04-20T18:44:46.430Z,10.70
2023-04-20T18:47:13.149Z,10.70
2023-04-20T18:49:39.827Z,10.60
2023-04-20T18:52:06.691Z,10.60
2023-04-20T18:54:33.353Z,10.60
2023-04-20T18:57:00.040Z,10.50
2023-04-20T18:59:26.819Z,10.40
2023-04-20T19:01:53.774Z,10.40
2023-04-20T19:04:21.159Z,10.30
2023-04-20T19:06:48.161Z,10.20
2023-04-20T19:09:14.927Z,10.20
2023-04-20T19:11:41.989Z,10.10
2023-04-20T19:14:08.745Z,10.10
2023-04-20T19:16:35.686Z,10.10
2023-04-20T19:19:03.868Z,10.10
2023-04-20T19:21:32.318Z,10.10
2023-04-20T19:23:58.998Z,10.10
2023-04-20T19:26:25.680Z,10.10
2023-04-20T19:28:52.418Z,10.00
2023-04-20T19:31:19.108Z,10.00
2023-04-20T19:33:45.907Z,10.00
2023-04-20T19:36:12.663Z,9.90
2023-04-20T19:38:39.418Z,10.00
2023-04-20T19:41:06.291Z,9.90
2023-04-20T19:43:33.054Z,9.90
2023-04-20T19:45:59.769Z,9.90
2023-04-20T19:48:26.811Z,9.80
2023-04-20T19:50:56.481Z,9.80
2023-04-20T19:53:25.099Z,9.80
2023-04-20T19:55:51.822Z,9.80
2023-04-20T19:58:18.885Z,9.80
2023-04-20T20:00:45.614Z,9.80
2023-04-20T20:03:14.956Z,9.80
2023-04-20T20:05:42.522Z,9.80
2023-04-20T20:08:09.201Z,9.80
2023-04-20T20:10:35.940Z,9.90
2023-04-20T20:13:03.257Z,9.90
2023-04-20T20:15:29.974Z,9.80
2023-04-20T20:17:58.526Z,9.70
2023-04-20T20:20:30.636Z,9.80
2023-04-20T20:22:57.438Z,9.70
2023-04-20T20:25:24.120Z,9.60
2023-04-20T20:27:51.153Z,9.60
2023-04-20T20:30:18.402Z,9.50
2023-04-20T20:32:45.238Z,9.50
2023-04-20T20:35:13.036Z,9.50
2023-04-20T20:37:40.706Z,9.50
2023-04-20T20:40:12.110Z,9.40
2023-04-20T20:42:39.907Z,9.20
2023-04-20T20:45:07.315Z,9.20
2023-04-20T20:47:34.031Z,9.10
2023-04-20T20:50:00.709Z,9.10
2023-04-20T20:52:27.668Z,9.10
2023-04-20T20:54:54.481Z,9.10
2023-04-20T20:57:21.229Z,9.00
2023-04-20T20:59:47.922Z,8.90
2023-04-20T21:02:14.691Z,8.90
2023-04-20T21:04:41.383Z,9.00
2023-04-20T21:07:08.126Z,8.90
2023-04-20T21:09:34.774Z,8.70
2023-04-20T21:12:02.204Z,8.70
2023-04-20T21:14:28.962Z,8.80
2023-04-20T21:16:56.011Z,8.80
2023-04-20T21:19:22.787Z,9.00
2023-04-20T21:21:49.461Z,8.90
2023-04-20T21:24:16.199Z,9.00
2023-04-20T21:26:42.833Z,9.00
2023-04-20T21:29:09.468Z,8.90
2023-04-20T21:31:36.228Z,8.90
2023-04-20T21:34:02.841Z,9.00
2023-04-20T21:36:29.477Z,8.90
2023-04-20T21:38:56.455Z,8.90
2023-04-20T21:41:23.274Z,8.80
2023-04-20T21:43:51.872Z,8.70
2023-04-20T21:46:18.682Z,8.60
2023-04-20T21:48:45.391Z,8.60
2023-04-20T21:51:16.124Z,8.60
2023-04-20T21:53:43.066Z,8.60
2023-04-20T21:56:09.771Z,8.60
2023-04-20T21:58:36.497Z,8.50
2023-04-20T22:01:03.340Z,8.50
2023-04-20T22:03:31.388Z,8.40
2023-04-20T22:05:58.848Z,8.40
2023-04-20T22:08:25.802Z,8.40
2023-04-20T22:10:52.509Z,8.30
2023-04-20T22:13:19.711Z,8.30
2023-04-20T22:15:47.420Z,8.20
2023-04-20T22:18:14.225Z,8.20
2023-04-20T22:20:40.883Z,8.10
2023-04-20T22:23:07.532Z,8.10
2023-04-20T22:25:34.339Z,8.00
2023-04-20T22:28:01.032Z,8.10
2023-04-20T22:30:27.815Z,8.00
2023-04-20T22:32:54.578Z,8.00
2023-04-20T22:35:21.265Z,8.00
2023-04-20T22:37:47.951Z,8.00
2023-04-20T22:40:14.609Z,7.90
2023-04-20T22:42:41.381Z,7.90
2023-04-20T22:45:10.861Z,7.90
2023-04-20T22:47:40.764Z,7.80
2023-04-20T22:50:09.539Z,7.80
2023-04-20T22:52:38.608Z,7.80
2023-04-20T22:55:06.335Z,7.70
2023-04-20T22:57:33.013Z,7.70
2023-04-20T22:59:59.701Z,7.70
2023-04-20T23:02:26.973Z,7.60
2023-04-20T23:04:53.737Z,7.60
2023-04-20T23:07:21.221Z,7.50
2023-04-20T23:09:47.913Z,7.50
2023-04-20T23:12:14.759Z,7.50
2023-04-20T23:14:44.259Z,7.50
2023-04-20T23:17:10.924Z,7.50
2023-04-20T23:19:38.789Z,7.50
2023-04-20T23:22:08.738Z,7.50
2023-04-20T23:24:35.745Z,7.50
2023-04-20T23:27:03.056Z,7.50
2023-04-20T23:29:30.080Z,7.60
2023-04-20T23:31:56.961Z,7.60
2023-04-20T23:34:23.679Z,7.60
2023-04-20T23:36:50.844Z,7.60
2023-04-20T23:39:18.072Z,7.50
2023-04-20T23:41:49.368Z,7.40
2023-04-20T23:44:16.146Z,7.30
2023-04-20T23:46:42.787Z,7.30
2023-04-20T23:49:09.515Z,7.30
2023-04-20T23:51:36.251Z,7.30
2023-04-20T23:54:03.469Z,7.20
2023-04-20T23:56:30.078Z,7.10
2023-04-20T23:58:56.730Z,7.00
